KERV/ERV METAR and TAF weather

Enter ICAO airport designator
Station Type Date Time Source
KERV METAR 2019/06/20 06:55 UTC NOAA

KERV 200655Z AUTO 15006KT 10SM SCT013 26/24 A2985 RMK AO2 T02610238


Station Type Date Time Source
KERV Decoded METAR 2019/06/20 06:55 UTC NOAA

Kerrville, Kerrville Municipal Airport/Louis Schreiner Field, TX, United States (KERV) 29-58N 099-05W
Jun 20, 2019 - 02:55 AM EDT / 2019.06.20 0655 UTC
Wind: from the SSE (150 degrees) at 7 MPH (6 KT):0
Visibility: 10 mile(s):0
Sky conditions: partly cloudy
Temperature: 79.0 F (26.1 C)
Dew Point: 74.8 F (23.8 C)
Relative Humidity: 87%
Pressure (altimeter): 29.85 in. Hg (1010 hPa)
ob: KERV 200655Z AUTO 15006KT 10SM SCT013 26/24 A2985 RMK AO2 T02610238
cycle: 7

Station Type Date Time Source
KERV TAF UTC NOAA

Error!

Example: see airport list